createdAt,value
2022-10-21T00:01:07.549Z,16.60
2022-10-21T00:03:36.651Z,16.70
2022-10-21T00:06:05.952Z,16.70
2022-10-21T00:08:35.515Z,16.60
2022-10-21T00:11:05.928Z,16.70
2022-10-21T00:13:36.314Z,16.60
2022-10-21T00:16:17.079Z,16.60
2022-10-21T00:18:46.924Z,16.60
2022-10-21T00:21:18.566Z,16.50
2022-10-21T00:23:47.963Z,16.40
2022-10-21T00:26:17.129Z,16.40
2022-10-21T00:28:45.799Z,16.40
2022-10-21T00:31:16.332Z,16.30
2022-10-21T00:33:44.946Z,16.30
2022-10-21T00:36:16.283Z,16.30
2022-10-21T00:38:46.822Z,16.20
2022-10-21T00:41:17.325Z,16.20
2022-10-21T00:44:03.894Z,16.20
2022-10-21T00:46:38.144Z,16.20
2022-10-21T00:49:09.740Z,16.10
2022-10-21T00:51:39.225Z,16.10
2022-10-21T00:54:08.315Z,16.10
2022-10-21T00:56:38.729Z,16.10
2022-10-21T00:59:08.018Z,16.20
2022-10-21T01:01:36.707Z,16.10
2022-10-21T01:04:05.951Z,16.10
2022-10-21T01:06:37.100Z,16.10
2022-10-21T01:09:07.442Z,16.00
2022-10-21T01:11:39.001Z,16.00
2022-10-21T01:14:34.455Z,16.00
2022-10-21T01:17:20.926Z,16.00
2022-10-21T01:20:00.409Z,16.00
2022-10-21T01:23:04.787Z,16.00
2022-10-21T01:26:00.137Z,16.00
2022-10-21T01:28:37.425Z,15.90
2022-10-21T01:31:12.052Z,15.80
2022-10-21T01:33:43.700Z,15.80
2022-10-21T01:36:33.542Z,15.70
2022-10-21T01:39:05.043Z,15.70
2022-10-21T01:41:42.690Z,15.60
2022-10-21T01:44:17.068Z,15.70
2022-10-21T01:47:08.643Z,15.70
2022-10-21T01:49:43.088Z,15.70
2022-10-21T01:52:13.330Z,15.70
2022-10-21T01:54:50.611Z,15.50
2022-10-21T01:57:22.671Z,15.60
2022-10-21T01:59:52.566Z,15.50
2022-10-21T02:02:23.077Z,15.30
2022-10-21T02:04:52.457Z,15.10
2022-10-21T02:07:20.983Z,14.90
2022-10-21T02:09:49.570Z,14.80
2022-10-21T02:12:19.655Z,14.70
2022-10-21T02:14:51.310Z,14.60
2022-10-21T02:17:22.312Z,14.50
2022-10-21T02:19:50.897Z,14.50
2022-10-21T02:22:22.685Z,14.30
2022-10-21T02:24:59.835Z,14.20
2022-10-21T02:27:28.429Z,14.10
2022-10-21T02:30:00.320Z,14.00
2022-10-21T02:32:46.489Z,13.90
2022-10-21T02:35:37.517Z,13.70
2022-10-21T02:38:14.766Z,13.50
2022-10-21T02:41:04.845Z,13.50
2022-10-21T02:43:36.442Z,13.50
2022-10-21T02:46:13.986Z,13.60
2022-10-21T02:48:45.353Z,13.50
2022-10-21T02:51:14.230Z,13.40
2022-10-21T02:53:42.874Z,13.20
2022-10-21T02:56:11.405Z,13.10
2022-10-21T02:58:39.917Z,12.80
2022-10-21T03:01:08.417Z,12.70
2022-10-21T03:03:36.869Z,12.50
2022-10-21T03:06:05.373Z,12.40
2022-10-21T03:08:33.944Z,12.20
2022-10-21T03:11:02.425Z,12.10
2022-10-21T03:13:30.858Z,12.10
2022-10-21T03:15:59.447Z,12.00
2022-10-21T03:18:28.033Z,12.00
2022-10-21T03:20:56.711Z,11.90
2022-10-21T03:23:26.525Z,11.80
2022-10-21T03:25:55.046Z,11.70
2022-10-21T03:28:23.841Z,11.60
2022-10-21T03:30:52.455Z,11.60
2022-10-21T03:33:21.065Z,11.50
2022-10-21T03:35:49.534Z,11.50
2022-10-21T03:38:18.090Z,11.30
2022-10-21T03:40:46.609Z,11.30
2022-10-21T03:43:15.130Z,11.40
2022-10-21T03:45:43.682Z,11.40
2022-10-21T03:48:12.190Z,11.40
2022-10-21T03:50:40.685Z,11.40
2022-10-21T03:53:18.521Z,11.20
2022-10-21T03:55:39.451Z,11.20
2022-10-21T03:58:08.033Z,11.30
2022-10-21T04:00:36.782Z,11.20
2022-10-21T04:03:05.301Z,11.20
2022-10-21T04:05:33.743Z,11.30
2022-10-21T04:08:02.346Z,11.50
2022-10-21T04:10:30.937Z,11.50
2022-10-21T04:12:59.568Z,11.60
2022-10-21T04:15:28.125Z,11.80
2022-10-21T04:17:56.572Z,12.30
2022-10-21T04:20:25.013Z,13.00
2022-10-21T04:22:53.520Z,12.80
2022-10-21T04:25:21.998Z,12.40
2022-10-21T04:27:50.584Z,12.60
2022-10-21T04:30:19.160Z,12.80
2022-10-21T04:32:47.635Z,13.30
2022-10-21T04:35:16.465Z,13.70
2022-10-21T04:37:45.154Z,13.50
2022-10-21T04:40:13.804Z,13.70
2022-10-21T04:42:42.593Z,13.60
2022-10-21T04:45:11.329Z,13.80
2022-10-21T04:47:40.095Z,13.80
2022-10-21T04:50:09.199Z,13.40
2022-10-21T04:52:38.676Z,13.80
2022-10-21T04:55:07.932Z,14.40
2022-10-21T04:57:36.554Z,14.60
2022-10-21T05:00:06.477Z,14.50
2022-10-21T05:02:35.017Z,14.40
2022-10-21T05:05:03.711Z,14.70
2022-10-21T05:07:32.277Z,14.70
2022-10-21T05:10:00.702Z,14.80
2022-10-21T05:12:29.195Z,14.80
2022-10-21T05:14:59.341Z,14.80
2022-10-21T05:17:28.182Z,15.30
2022-10-21T05:19:56.730Z,15.20
2022-10-21T05:22:25.379Z,15.10
2022-10-21T05:24:53.927Z,15.10
2022-10-21T05:27:22.489Z,14.90
2022-10-21T05:29:52.513Z,14.90
2022-10-21T05:32:21.034Z,15.00
2022-10-21T05:34:49.465Z,14.90
2022-10-21T05:37:17.984Z,14.80
2022-10-21T05:39:46.545Z,14.90
2022-10-21T05:42:15.128Z,14.80
2022-10-21T05:44:43.839Z,14.80
2022-10-21T05:47:12.369Z,14.90
2022-10-21T05:49:40.915Z,14.90
2022-10-21T05:52:10.221Z,14.90
2022-10-21T05:54:38.742Z,15.00
2022-10-21T05:57:07.331Z,14.90
2022-10-21T05:59:35.828Z,14.90
2022-10-21T06:02:04.355Z,14.90
2022-10-21T06:04:37.824Z,15.00
2022-10-21T06:07:03.128Z,14.80
2022-10-21T06:09:31.724Z,14.80
2022-10-21T06:12:00.347Z,14.80
2022-10-21T06:14:29.006Z,14.80
2022-10-21T06:16:57.543Z,14.80
2022-10-21T06:19:25.991Z,14.80
2022-10-21T06:21:54.560Z,14.60
2022-10-21T06:24:24.439Z,14.70
2022-10-21T06:26:53.359Z,14.70
2022-10-21T06:29:22.757Z,14.80
2022-10-21T06:31:51.440Z,14.90
2022-10-21T06:34:20.157Z,14.90
2022-10-21T06:36:48.712Z,14.90
2022-10-21T06:39:19.059Z,14.80
2022-10-21T06:41:47.575Z,14.80
2022-10-21T06:44:16.158Z,14.90
2022-10-21T06:46:44.652Z,15.00
2022-10-21T06:49:13.299Z,15.00
2022-10-21T06:51:41.771Z,15.10
2022-10-21T06:54:10.363Z,15.10
2022-10-21T06:56:40.500Z,15.10
2022-10-21T06:59:10.742Z,15.20
2022-10-21T07:01:59.208Z,15.30
2022-10-21T07:04:10.315Z,15.40
2022-10-21T07:06:39.405Z,15.50
2022-10-21T07:09:09.336Z,15.50
2022-10-21T07:11:38.084Z,15.60
2022-10-21T07:14:07.391Z,15.70
2022-10-21T07:16:37.431Z,15.70
2022-10-21T07:19:06.730Z,15.70
2022-10-21T07:21:35.303Z,15.70
2022-10-21T07:24:03.823Z,15.80
2022-10-21T07:26:34.598Z,15.80
2022-10-21T07:29:03.173Z,15.90
2022-10-21T07:31:34.531Z,15.90
2022-10-21T07:36:36.123Z,15.70
2022-10-21T07:39:08.013Z,15.60
2022-10-21T07:41:39.670Z,15.60
2022-10-21T07:44:09.306Z,15.60
2022-10-21T07:46:40.996Z,15.60
2022-10-21T07:49:10.473Z,15.60
2022-10-21T07:51:40.085Z,15.70
2022-10-21T07:54:09.263Z,15.70
2022-10-21T07:56:43.437Z,15.70
2022-10-21T07:59:13.540Z,15.60
2022-10-21T08:01:45.193Z,15.60
2022-10-21T08:04:16.124Z,15.70
2022-10-21T08:06:46.158Z,15.80
2022-10-21T08:09:16.699Z,15.90
2022-10-21T08:11:47.140Z,15.90
2022-10-21T08:14:18.152Z,16.00
2022-10-21T08:16:46.792Z,16.10
2022-10-21T08:19:19.991Z,16.10
2022-10-21T08:21:48.665Z,16.10
2022-10-21T08:24:17.518Z,16.10
2022-10-21T08:26:46.191Z,16.20
2022-10-21T08:29:14.756Z,16.20
2022-10-21T08:31:43.205Z,16.20
2022-10-21T08:34:12.142Z,16.20
2022-10-21T08:36:41.278Z,16.20
2022-10-21T08:39:09.995Z,16.20
2022-10-21T08:41:47.479Z,16.20
2022-10-21T08:44:31.306Z,16.20
2022-10-21T08:49:52.241Z,16.30
2022-10-21T08:52:23.782Z,16.40
2022-10-21T08:55:01.299Z,16.40
2022-10-21T08:57:31.746Z,16.50
2022-10-21T09:00:00.278Z,16.50
2022-10-21T09:03:02.163Z,16.60
2022-10-21T09:05:53.390Z,16.60
2022-10-21T09:08:27.710Z,16.60
2022-10-21T09:11:08.146Z,16.70
2022-10-21T09:14:02.338Z,16.70
2022-10-21T09:16:42.706Z,16.80
2022-10-21T09:19:33.606Z,16.80
2022-10-21T09:22:35.161Z,16.80
2022-10-21T09:25:02.754Z,16.70
2022-10-21T09:27:51.296Z,16.70
2022-10-21T09:30:05.392Z,16.60
2022-10-21T09:32:40.373Z,16.50
2022-10-21T09:35:28.553Z,16.50
2022-10-21T09:38:05.950Z,16.50
2022-10-21T09:40:34.604Z,16.50
2022-10-21T09:43:04.878Z,16.60
2022-10-21T09:45:41.660Z,16.70
2022-10-21T09:48:22.065Z,16.80
2022-10-21T09:51:02.299Z,16.70
2022-10-21T09:53:36.561Z,15.90
2022-10-21T09:56:13.617Z,15.80
2022-10-21T09:58:47.970Z,15.70
2022-10-21T10:01:23.242Z,15.70
2022-10-21T10:03:53.412Z,15.70
2022-10-21T10:06:42.693Z,15.80
2022-10-21T10:09:31.988Z,15.60
2022-10-21T10:12:18.705Z,15.50
2022-10-21T10:14:47.989Z,15.40
2022-10-21T10:17:22.412Z,15.40
2022-10-21T10:20:08.908Z,15.30
2022-10-21T10:22:43.091Z,15.20
2022-10-21T10:25:24.035Z,15.20
2022-10-21T10:28:04.764Z,15.20
2022-10-21T10:30:45.248Z,15.30
2022-10-21T10:33:32.381Z,15.30
2022-10-21T10:36:06.493Z,15.30
2022-10-21T10:38:39.256Z,15.20
2022-10-21T10:41:11.015Z,15.30
2022-10-21T10:43:45.470Z,15.30
2022-10-21T10:46:31.978Z,15.30
2022-10-21T10:49:09.819Z,15.20
2022-10-21T10:51:39.980Z,15.30
2022-10-21T10:54:20.170Z,15.50
2022-10-21T10:56:54.552Z,15.40
2022-10-21T10:59:34.942Z,15.50
2022-10-21T11:02:12.873Z,15.60
2022-10-21T11:04:44.577Z,15.50
2022-10-21T11:07:16.265Z,15.60
2022-10-21T11:09:45.385Z,15.70
2022-10-21T11:12:23.538Z,15.50
2022-10-21T11:14:58.317Z,15.60
2022-10-21T11:17:35.896Z,15.60
2022-10-21T11:20:19.471Z,15.50
2022-10-21T11:25:47.969Z,15.20
2022-10-21T11:28:25.700Z,14.80
2022-10-21T11:31:11.950Z,14.70
2022-10-21T11:33:52.386Z,14.80
2022-10-21T11:36:26.839Z,15.00
2022-10-21T11:39:07.470Z,15.00
2022-10-21T11:41:39.052Z,15.00
2022-10-21T11:44:16.593Z,15.00
2022-10-21T11:47:15.271Z,15.10
2022-10-21T11:50:02.408Z,15.10
2022-10-21T11:52:36.822Z,15.30
2022-10-21T11:55:24.817Z,15.30
2022-10-21T11:57:59.329Z,15.20
2022-10-21T12:00:30.202Z,15.20
2022-10-21T12:03:36.942Z,15.10
2022-10-21T12:06:17.543Z,15.20
2022-10-21T12:08:58.313Z,15.10
2022-10-21T12:11:41.468Z,15.00
2022-10-21T12:14:31.803Z,15.00
2022-10-21T12:17:02.883Z,15.00
2022-10-21T12:19:31.633Z,14.90
2022-10-21T12:22:00.564Z,15.00
2022-10-21T12:24:46.748Z,15.20
2022-10-21T12:27:45.850Z,15.10
2022-10-21T12:30:26.516Z,15.00
2022-10-21T12:33:09.064Z,15.00
2022-10-21T12:35:53.785Z,15.20
2022-10-21T12:38:44.894Z,15.20
2022-10-21T12:41:35.121Z,15.40
2022-10-21T12:44:06.633Z,15.50
2022-10-21T12:46:41.915Z,15.70
2022-10-21T12:49:25.790Z,15.70
2022-10-21T12:52:09.361Z,15.80
2022-10-21T12:54:59.345Z,15.80
2022-10-21T12:57:39.253Z,16.10
2022-10-21T13:00:32.042Z,16.10
2022-10-21T13:03:15.872Z,16.30
2022-10-21T13:05:50.398Z,16.90
2022-10-21T13:08:26.664Z,17.60
2022-10-21T13:11:12.999Z,19.50
2022-10-21T13:13:44.876Z,20.10
2022-10-21T13:16:25.480Z,19.00
2022-10-21T13:19:06.298Z,19.60
2022-10-21T13:21:37.643Z,18.10
2022-10-21T13:24:09.224Z,18.00
2022-10-21T13:26:43.615Z,19.20
2022-10-21T13:29:16.424Z,18.60
2022-10-21T13:31:45.307Z,17.90
2022-10-21T13:34:29.205Z,18.00
2022-10-21T13:36:58.288Z,17.60
2022-10-21T13:39:32.773Z,17.60
2022-10-21T13:42:07.107Z,17.00
2022-10-21T13:44:38.440Z,16.80
2022-10-21T13:47:30.859Z,17.00
2022-10-21T13:50:08.058Z,17.50
2022-10-21T13:52:36.690Z,17.00
2022-10-21T13:55:06.328Z,17.00
2022-10-21T13:57:37.145Z,17.30
2022-10-21T14:00:12.131Z,17.10
2022-10-21T14:02:43.683Z,16.90
2022-10-21T14:05:31.768Z,16.90
2022-10-21T14:08:00.535Z,16.70
2022-10-21T14:10:30.276Z,16.60
2022-10-21T14:15:37.606Z,16.50
2022-10-21T14:18:06.941Z,16.40
2022-10-21T14:20:38.086Z,16.50
2022-10-21T14:23:09.941Z,16.50
2022-10-21T14:25:38.716Z,16.60
2022-10-21T14:28:07.388Z,16.60
2022-10-21T14:30:37.128Z,16.60
2022-10-21T14:33:08.475Z,16.80
2022-10-21T14:35:37.017Z,16.80
2022-10-21T14:38:07.411Z,16.70
2022-10-21T14:40:41.655Z,17.10
2022-10-21T14:43:25.026Z,17.00
2022-10-21T14:45:54.787Z,16.90
2022-10-21T14:48:26.402Z,16.70
2022-10-21T14:51:11.019Z,16.70
2022-10-21T14:53:59.022Z,16.50
2022-10-21T14:56:33.887Z,16.40
2022-10-21T14:59:05.477Z,16.60
2022-10-21T15:01:34.195Z,16.70
2022-10-21T15:04:03.385Z,19.10
2022-10-21T15:06:37.444Z,20.40
2022-10-21T15:09:09.065Z,20.60
2022-10-21T15:11:40.429Z,20.00
2022-10-21T15:14:17.977Z,20.50
2022-10-21T15:16:58.920Z,19.60
2022-10-21T15:19:45.088Z,18.10
2022-10-21T15:22:25.104Z,17.50
2022-10-21T15:24:58.538Z,17.00
2022-10-21T15:27:37.031Z,17.10
2022-10-21T15:30:17.821Z,16.90
2022-10-21T15:32:47.598Z,16.70
2022-10-21T15:35:18.563Z,16.60
2022-10-21T15:37:54.238Z,16.60
2022-10-21T15:40:23.747Z,16.80
2022-10-21T15:42:52.531Z,17.80
2022-10-21T15:45:23.585Z,18.00
2022-10-21T15:47:53.755Z,17.00
2022-10-21T15:50:25.297Z,16.80
2022-10-21T15:52:57.150Z,16.50
2022-10-21T15:55:24.421Z,16.40
2022-10-21T15:57:52.953Z,16.30
2022-10-21T16:00:23.339Z,16.30
2022-10-21T16:02:52.626Z,16.30
2022-10-21T16:05:21.884Z,16.20
2022-10-21T16:07:51.283Z,16.10
2022-10-21T16:10:25.668Z,16.00
2022-10-21T16:12:55.100Z,16.10
2022-10-21T16:15:24.745Z,16.10
2022-10-21T16:17:55.922Z,16.00
2022-10-21T16:20:29.498Z,16.20
2022-10-21T16:23:02.038Z,16.10
2022-10-21T16:25:29.135Z,16.10
2022-10-21T16:27:57.841Z,16.00
2022-10-21T16:30:29.030Z,16.00
2022-10-21T16:32:57.836Z,15.90
2022-10-21T16:35:26.536Z,15.90
2022-10-21T16:37:56.763Z,15.80
2022-10-21T16:40:31.628Z,15.70
2022-10-21T16:43:00.213Z,15.70
2022-10-21T16:45:30.943Z,15.60
2022-10-21T16:48:01.531Z,15.60
2022-10-21T16:50:33.264Z,15.50
2022-10-21T16:53:02.344Z,15.50
2022-10-21T16:55:30.932Z,15.40
2022-10-21T16:57:59.623Z,15.40
2022-10-21T17:00:28.250Z,15.40
2022-10-21T17:02:58.577Z,15.30
2022-10-21T17:05:27.494Z,15.30
2022-10-21T17:07:58.320Z,15.20
2022-10-21T17:10:27.090Z,15.20
2022-10-21T17:12:57.733Z,15.20
2022-10-21T17:15:27.103Z,15.20
2022-10-21T17:17:55.683Z,15.20
2022-10-21T17:20:24.229Z,15.10
2022-10-21T17:22:52.865Z,15.10
2022-10-21T17:25:22.804Z,15.20
2022-10-21T17:27:51.383Z,15.10
2022-10-21T17:30:20.513Z,15.10
2022-10-21T17:32:49.315Z,15.00
2022-10-21T17:35:20.845Z,15.00
2022-10-21T17:37:50.330Z,15.10
2022-10-21T17:40:22.053Z,15.20
2022-10-21T17:42:52.688Z,15.20
2022-10-21T17:45:22.657Z,15.20
2022-10-21T17:47:53.428Z,15.20
2022-10-21T17:50:25.881Z,15.20
2022-10-21T17:52:56.251Z,15.20
2022-10-21T17:55:25.026Z,15.10
2022-10-21T17:57:53.469Z,15.10
2022-10-21T18:00:22.038Z,15.00
2022-10-21T18:02:50.690Z,15.00
2022-10-21T18:05:19.199Z,14.90
2022-10-21T18:07:47.655Z,14.80
2022-10-21T18:10:16.346Z,14.80
2022-10-21T18:12:44.778Z,14.80
2022-10-21T18:15:13.302Z,14.80
2022-10-21T18:17:42.379Z,14.80
2022-10-21T18:20:11.447Z,14.70
2022-10-21T18:22:40.252Z,14.70
2022-10-21T18:25:09.242Z,14.70
2022-10-21T18:27:39.717Z,14.70
2022-10-21T18:30:09.500Z,14.70
2022-10-21T18:32:38.852Z,14.70
2022-10-21T18:35:08.601Z,14.60
2022-10-21T18:37:37.730Z,14.70
2022-10-21T18:40:07.429Z,14.70
2022-10-21T18:42:35.987Z,14.60
2022-10-21T18:45:04.749Z,14.70
2022-10-21T18:47:33.458Z,14.70
2022-10-21T18:50:01.938Z,14.80
2022-10-21T18:52:30.626Z,14.70
2022-10-21T18:54:59.715Z,14.70
2022-10-21T18:57:28.367Z,14.70
2022-10-21T18:59:56.914Z,14.80
2022-10-21T19:02:25.749Z,14.70
2022-10-21T19:04:56.044Z,14.60
2022-10-21T19:07:24.618Z,14.70
2022-10-21T19:09:53.128Z,14.70
2022-10-21T19:12:23.541Z,14.70
2022-10-21T19:14:52.152Z,14.70
2022-10-21T19:17:20.767Z,14.80
2022-10-21T19:19:50.056Z,14.70
2022-10-21T19:22:19.930Z,14.80
2022-10-21T19:24:48.543Z,14.80
2022-10-21T19:27:17.139Z,14.90
2022-10-21T19:29:45.961Z,14.90
2022-10-21T19:32:16.475Z,14.90
2022-10-21T19:34:45.712Z,15.10
2022-10-21T19:37:14.588Z,15.10
2022-10-21T19:39:43.165Z,15.00
2022-10-21T19:42:15.337Z,14.90
2022-10-21T19:44:44.015Z,14.80
2022-10-21T19:47:12.569Z,14.90
2022-10-21T19:49:41.720Z,14.80
2022-10-21T19:52:10.429Z,14.80
2022-10-21T19:54:39.194Z,14.70
2022-10-21T19:57:08.122Z,14.80
2022-10-21T19:59:36.774Z,14.80
2022-10-21T20:02:05.349Z,14.80
2022-10-21T20:04:35.379Z,14.80
2022-10-21T20:07:04.674Z,14.80
2022-10-21T20:09:35.117Z,14.80
2022-10-21T20:12:03.413Z,14.90
2022-10-21T20:14:32.007Z,15.00
2022-10-21T20:17:00.502Z,14.90
2022-10-21T20:19:29.025Z,15.00
2022-10-21T20:21:57.451Z,14.90
2022-10-21T20:24:25.981Z,14.90
2022-10-21T20:26:58.358Z,15.00
2022-10-21T20:29:24.732Z,15.00
2022-10-21T20:31:53.148Z,14.90
2022-10-21T20:34:21.766Z,14.90
2022-10-21T20:36:50.293Z,14.90
2022-10-21T20:39:18.918Z,14.90
2022-10-21T20:41:47.361Z,15.00
2022-10-21T20:44:17.638Z,15.10
2022-10-21T20:46:46.586Z,15.10
2022-10-21T20:49:15.109Z,15.10
2022-10-21T20:51:43.711Z,15.20
2022-10-21T20:54:21.469Z,15.20
2022-10-21T20:56:49.970Z,15.10
2022-10-21T20:59:18.600Z,15.20
2022-10-21T21:01:48.215Z,15.20
2022-10-21T21:04:19.981Z,15.20
2022-10-21T21:06:50.819Z,15.10
2022-10-21T21:11:52.260Z,15.20
2022-10-21T21:14:20.817Z,15.10
2022-10-21T21:16:49.254Z,15.20
2022-10-21T21:19:19.324Z,15.10
2022-10-21T21:21:48.917Z,15.20
2022-10-21T21:24:17.512Z,15.20
2022-10-21T21:26:46.022Z,15.20
2022-10-21T21:29:15.330Z,15.20
2022-10-21T21:31:44.747Z,15.20
2022-10-21T21:34:13.274Z,15.20
2022-10-21T21:36:41.809Z,15.20
2022-10-21T21:41:41.759Z,15.10
2022-10-21T21:44:10.286Z,15.10
2022-10-21T21:46:38.876Z,15.10
2022-10-21T21:49:07.492Z,15.00
2022-10-21T21:51:37.535Z,15.00
2022-10-21T21:54:07.754Z,15.20
2022-10-21T21:56:36.752Z,15.10
2022-10-21T21:59:05.658Z,15.00
2022-10-21T22:01:34.300Z,15.00
2022-10-21T22:04:03.240Z,15.00
2022-10-21T22:06:35.158Z,15.00
2022-10-21T22:09:07.179Z,15.00
2022-10-21T22:11:35.762Z,15.00
2022-10-21T22:14:04.503Z,14.90
2022-10-21T22:16:33.038Z,14.90
2022-10-21T22:19:02.193Z,14.80
2022-10-21T22:21:32.207Z,14.80
2022-10-21T22:24:00.832Z,14.80
2022-10-21T22:26:29.823Z,14.90
2022-10-21T22:28:58.298Z,15.00
2022-10-21T22:31:29.511Z,15.10
2022-10-21T22:33:56.976Z,15.00
2022-10-21T22:36:26.893Z,14.90
2022-10-21T22:38:55.379Z,14.80
2022-10-21T22:41:24.070Z,14.70
2022-10-21T22:43:52.593Z,14.60
2022-10-21T22:46:33.447Z,14.60
2022-10-21T22:48:51.385Z,14.50
2022-10-21T22:51:19.968Z,14.40
2022-10-21T22:53:53.461Z,14.50
2022-10-21T22:56:18.676Z,14.50
2022-10-21T22:58:47.180Z,14.40
2022-10-21T23:01:15.910Z,14.30
2022-10-21T23:03:44.460Z,14.30
2022-10-21T23:06:13.157Z,14.30
2022-10-21T23:08:41.977Z,14.20
2022-10-21T23:11:10.537Z,14.30
2022-10-21T23:13:51.029Z,14.20
2022-10-21T23:16:10.564Z,14.30
2022-10-21T23:18:38.991Z,14.40
2022-10-21T23:21:07.619Z,14.40
2022-10-21T23:23:36.515Z,14.30
2022-10-21T23:26:05.308Z,14.30
2022-10-21T23:28:34.120Z,14.40
2022-10-21T23:31:02.874Z,14.30
2022-10-21T23:33:31.344Z,14.50
2022-10-21T23:35:59.888Z,14.50
2022-10-21T23:38:28.483Z,14.40
2022-10-21T23:40:57.008Z,14.50
2022-10-21T23:43:25.583Z,14.40
2022-10-21T23:45:54.131Z,14.40
2022-10-21T23:48:23.368Z,14.40
2022-10-21T23:50:52.052Z,14.40
2022-10-21T23:53:20.551Z,14.40
2022-10-21T23:55:49.065Z,14.50
2022-10-21T23:58:17.538Z,14.40
